createdAt,value
2023-03-02T00:00:02.126Z,102.92
2023-03-02T00:15:01.370Z,102.92
2023-03-02T00:30:01.781Z,102.92
2023-03-02T00:45:02.079Z,102.92
2023-03-02T01:00:02.360Z,102.92
2023-03-02T01:15:01.711Z,102.92
2023-03-02T01:30:03.141Z,119.8
2023-03-02T01:45:01.500Z,119.8
2023-03-02T02:00:02.039Z,119.8
2023-03-02T02:15:02.466Z,119.8
2023-03-02T02:30:01.721Z,118.91
2023-03-02T02:45:02.203Z,118.91
2023-03-02T03:00:03.002Z,118.67
2023-03-02T03:15:01.985Z,118.67
2023-03-02T03:30:02.321Z,118.67
2023-03-02T03:45:02.424Z,118.67
2023-03-02T04:00:03.041Z,118.67
2023-03-02T04:15:02.291Z,118.67
2023-03-02T04:30:01.892Z,118.67
2023-03-02T04:45:02.375Z,118.67
2023-03-02T05:00:02.296Z,118.58
2023-03-02T05:15:02.404Z,120.28
2023-03-02T05:30:02.066Z,120.77
2023-03-02T05:45:02.366Z,119.15
2023-03-02T06:00:01.736Z,118.79
2023-03-02T06:15:02.301Z,120.4
2023-03-02T06:30:01.502Z,120.37
2023-03-02T06:45:02.308Z,119.19
2023-03-02T07:00:02.232Z,117.73
2023-03-02T07:15:02.323Z,112.55
2023-03-02T07:30:02.865Z,112.55
2023-03-02T07:45:03.404Z,112.55
2023-03-02T08:00:01.773Z,112.55
2023-03-02T08:15:04.479Z,112.55
2023-03-02T08:30:02.938Z,112.55
2023-03-02T08:45:02.200Z,112.55
2023-03-02T09:00:01.831Z,112.55
2023-03-02T09:15:02.285Z,112.55
2023-03-02T09:30:02.800Z,112.55
2023-03-02T09:45:01.536Z,112.55
2023-03-02T10:00:12.846Z,61.88
2023-03-02T10:15:01.728Z,60.87
2023-03-02T10:30:02.916Z,60.87
2023-03-02T10:45:01.728Z,60.87
2023-03-02T11:00:02.420Z,60.87
2023-03-02T11:15:02.717Z,60.87
2023-03-02T11:30:01.415Z,60.87
2023-03-02T11:45:01.714Z,60.87
2023-03-02T12:00:02.704Z,42.7
2023-03-02T12:15:02.671Z,42.74
2023-03-02T12:30:02.552Z,42.74
2023-03-02T12:45:02.476Z,42.74
2023-03-02T13:00:02.838Z,42.74
2023-03-02T13:15:01.384Z,55.93
2023-03-02T13:30:01.737Z,55.17
2023-03-02T13:45:02.878Z,50.96
2023-03-02T14:00:01.428Z,63.18
2023-03-02T14:15:02.257Z,60.1
2023-03-02T14:30:01.567Z,91.6
2023-03-02T14:45:01.895Z,91.6
2023-03-02T15:00:02.304Z,91.6
2023-03-02T15:15:02.582Z,91.6
2023-03-02T15:30:03.142Z,91.6
2023-03-02T15:45:01.561Z,91.6
2023-03-02T16:00:03.783Z,91.6
2023-03-02T16:15:02.376Z,91.6
2023-03-02T16:30:02.614Z,91.6
2023-03-02T16:45:01.792Z,91.6
2023-03-02T17:00:02.176Z,91.6
2023-03-02T17:15:02.263Z,91.6
2023-03-02T17:30:01.509Z,91.6
2023-03-02T17:45:01.842Z,91.6
2023-03-02T18:00:02.253Z,91.6
2023-03-02T18:15:02.400Z,91.6
2023-03-02T18:30:01.702Z,91.6
2023-03-02T18:45:01.983Z,91.6
2023-03-02T19:00:01.946Z,91.6
2023-03-02T19:15:02.535Z,91.6
2023-03-02T19:30:03.195Z,91.6
2023-03-02T19:45:01.638Z,91.6
2023-03-02T20:00:02.343Z,91.6
2023-03-02T20:15:01.902Z,91.6
2023-03-02T20:30:01.808Z,91.6
2023-03-02T20:45:02.311Z,91.6
2023-03-02T21:00:02.418Z,91.6
2023-03-02T21:15:01.553Z,91.6
2023-03-02T21:30:01.875Z,91.6
2023-03-02T21:45:02.230Z,91.6
2023-03-02T22:00:02.653Z,91.6
2023-03-02T22:15:01.710Z,91.6
2023-03-02T22:30:02.124Z,91.6
2023-03-02T22:45:02.282Z,91.6
2023-03-02T23:00:02.880Z,91.6
2023-03-02T23:15:01.768Z,91.6
2023-03-02T23:30:02.143Z,91.6
2023-03-02T23:45:02.563Z,91.6
